<?xml version="1.0" encoding="utf-8"?>
<gpx xmlns:xsi="http://www.w3.org/2001/XMLSchema-instance" xmlns:xsd="http://www.w3.org/2001/XMLSchema" xsi:schemaLocation="http://www.topografix.com/GPX/1/0 http://www.topografix.com/GPX/1/0/gpx.xsd" version="1.0" creator="QuoVadis 6.0.9.23" xmlns="http://www.topografix.com/GPX/1/0">
  <name>qv6</name>
  <trk>
    <name>datteln-blau</name>
    <trkseg>
      <trkpt lat="51.6773243699795" lon="7.34366192527831">
        <ele>48.001</ele>
        <time>2013-05-28T18:03:41.081Z</time>
      </trkpt>
      <trkpt lat="51.6752847693294" lon="7.34720621830654">
        <ele>49.001</ele>
        <time>2013-05-28T18:03:43.702Z</time>
      </trkpt>
      <trkpt lat="51.6737073992343" lon="7.35011896185694">
        <ele>49.001</ele>
        <time>2013-05-28T18:03:45.652Z</time>
      </trkpt>
      <trkpt lat="51.6728939631242" lon="7.35137737156293">
        <ele>48.001</ele>
        <time>2013-05-28T18:03:48.772Z</time>
      </trkpt>
      <trkpt lat="51.6723508570125" lon="7.35273435257724">
        <ele>48.001</ele>
        <time>2013-05-28T18:03:50.41Z</time>
      </trkpt>
      <trkpt lat="51.6717660471492" lon="7.35427352088359">
        <ele>48.001</ele>
        <time>2013-05-28T18:03:52.204Z</time>
      </trkpt>
      <trkpt lat="51.670794990618" lon="7.35553751006203">
        <ele>48.001</ele>
        <time>2013-05-28T18:03:53.764Z</time>
      </trkpt>
      <trkpt lat="51.6705325471687" lon="7.35605312621684">
        <ele>49.001</ele>
        <time>2013-05-28T18:03:55.09Z</time>
      </trkpt>
      <trkpt lat="51.6694634637874" lon="7.35836850150905">
        <ele>49.001</ele>
        <time>2013-05-28T18:03:57.664Z</time>
      </trkpt>
      <trkpt lat="51.6688225557155" lon="7.35911445977823">
        <ele>50.001</ele>
        <time>2013-05-28T18:04:04.918Z</time>
      </trkpt>
      <trkpt lat="51.668181445255" lon="7.35989654278334">
        <ele>50.001</ele>
        <time>2013-05-28T18:04:06.712Z</time>
      </trkpt>
      <trkpt lat="51.667918475769" lon="7.36037584271588">
        <ele>51.001</ele>
        <time>2013-05-28T18:04:15.214Z</time>
      </trkpt>
      <trkpt lat="51.6677233901995" lon="7.36088882484189">
        <ele>49.001</ele>
        <time>2013-05-28T18:04:16.852Z</time>
      </trkpt>
      <trkpt lat="51.6676919249057" lon="7.36182955824793">
        <ele>48.001</ele>
        <time>2013-05-28T18:04:18.022Z</time>
      </trkpt>
      <trkpt lat="51.6676974690051" lon="7.36222702144831">
        <ele>47.001</ele>
        <time>2013-05-28T18:04:19.114Z</time>
      </trkpt>
      <trkpt lat="51.6682450839866" lon="7.3628214874671">
        <ele>46.001</ele>
        <time>2013-05-28T18:04:20.362Z</time>
      </trkpt>
      <trkpt lat="51.668098432651" lon="7.3635856875984">
        <ele>46.001</ele>
        <time>2013-05-28T18:04:21.532Z</time>
      </trkpt>
      <trkpt lat="51.6678869098786" lon="7.36453291211782">
        <ele>48.001</ele>
        <time>2013-05-28T18:04:22.78Z</time>
      </trkpt>
      <trkpt lat="51.6678989801505" lon="7.36539980176774">
        <ele>49.001</ele>
        <time>2013-05-28T18:04:23.638Z</time>
      </trkpt>
      <trkpt lat="51.6680243522738" lon="7.36633489232577">
        <ele>48.001</ele>
        <time>2013-05-28T18:04:25.822Z</time>
      </trkpt>
      <trkpt lat="51.6681901178484" lon="7.36694328677788">
        <ele>47.001</ele>
        <time>2013-05-28T18:04:27.07Z</time>
      </trkpt>
      <trkpt lat="51.6689378486205" lon="7.36738620457822">
        <ele>47.001</ele>
        <time>2013-05-28T18:04:30.268Z</time>
      </trkpt>
      <trkpt lat="51.669687083887" lon="7.36793750237069">
        <ele>48.001</ele>
        <time>2013-05-28T18:04:32.14Z</time>
      </trkpt>
      <trkpt lat="51.6697362868606" lon="7.36988729174295">
        <ele>47.001</ele>
        <time>2013-05-28T18:04:34.09Z</time>
      </trkpt>
      <trkpt lat="51.6696802844695" lon="7.37068438049922">
        <ele>47.001</ele>
        <time>2013-05-28T18:04:35.572Z</time>
      </trkpt>
      <trkpt lat="51.6693793625855" lon="7.37167095025758">
        <ele>52.001</ele>
        <time>2013-05-28T18:04:37.288Z</time>
      </trkpt>
      <trkpt lat="51.6691893837113" lon="7.37258125139239">
        <ele>53.001</ele>
        <time>2013-05-28T18:04:39.472Z</time>
      </trkpt>
      <trkpt lat="51.668813910831" lon="7.37302852110883">
        <ele>50.001</ele>
        <time>2013-05-28T18:04:40.33Z</time>
      </trkpt>
      <trkpt lat="51.6683039666317" lon="7.37355259568429">
        <ele>49.001</ele>
        <time>2013-05-28T18:04:47.662Z</time>
      </trkpt>
      <trkpt lat="51.6679455956147" lon="7.37363770966068">
        <ele>49.001</ele>
        <time>2013-05-28T18:04:49.69Z</time>
      </trkpt>
      <trkpt lat="51.6676544593456" lon="7.37368441702608">
        <ele>52.001</ele>
        <time>2013-05-28T18:04:50.627Z</time>
      </trkpt>
      <trkpt lat="51.6673261980557" lon="7.37434651746918">
        <ele>53.001</ele>
        <time>2013-05-28T18:04:51.64Z</time>
      </trkpt>
      <trkpt lat="51.6670611690984" lon="7.37468124622248">
        <ele>51.001</ele>
        <time>2013-05-28T18:04:52.576Z</time>
      </trkpt>
      <trkpt lat="51.6667512196057" lon="7.3750177197252">
        <ele>48.001</ele>
        <time>2013-05-28T18:04:54.917Z</time>
      </trkpt>
      <trkpt lat="51.6662645423796" lon="7.37395087942254">
        <ele>51.001</ele>
        <time>2013-05-28T18:04:56.321Z</time>
      </trkpt>
      <trkpt lat="51.6658905121439" lon="7.3728801665165">
        <ele>53.001</ele>
        <time>2013-05-28T18:04:57.569Z</time>
      </trkpt>
      <trkpt lat="51.6653610492676" lon="7.37199572647355">
        <ele>54.001</ele>
        <time>2013-05-28T18:04:58.739Z</time>
      </trkpt>
      <trkpt lat="51.6648798581368" lon="7.37132639185115">
        <ele>54.001</ele>
        <time>2013-05-28T18:05:01.469Z</time>
      </trkpt>
      <trkpt lat="51.6645149756919" lon="7.37094198454425">
        <ele>56.001</ele>
        <time>2013-05-28T18:05:03.107Z</time>
      </trkpt>
      <trkpt lat="51.6640347831689" lon="7.37034504943579">
        <ele>60.001</ele>
        <time>2013-05-28T18:05:04.589Z</time>
      </trkpt>
      <trkpt lat="51.6633683787211" lon="7.36928477556642">
        <ele>64.001</ele>
        <time>2013-05-28T18:05:05.759Z</time>
      </trkpt>
      <trkpt lat="51.6627963261724" lon="7.36854649344407">
        <ele>65.001</ele>
        <time>2013-05-28T18:05:08.957Z</time>
      </trkpt>
      <trkpt lat="51.6619978001392" lon="7.36745503087201">
        <ele>65.001</ele>
        <time>2013-05-28T18:05:19.097Z</time>
      </trkpt>
      <trkpt lat="51.6609255727077" lon="7.36630118523508">
        <ele>62.001</ele>
        <time>2013-05-28T18:05:21.203Z</time>
      </trkpt>
      <trkpt lat="51.660085130946" lon="7.36568103464093">
        <ele>58.001</ele>
        <time>2013-05-28T18:05:24.401Z</time>
      </trkpt>
      <trkpt lat="51.6596756601052" lon="7.36529831697339">
        <ele>55.001</ele>
        <time>2013-05-28T18:05:25.727Z</time>
      </trkpt>
      <trkpt lat="51.6592184012244" lon="7.3647366683987">
        <ele>55.001</ele>
        <time>2013-05-28T18:05:27.599Z</time>
      </trkpt>
      <trkpt lat="51.6583794627081" lon="7.36422504907443">
        <ele>56.001</ele>
        <time>2013-05-28T18:05:31.577Z</time>
      </trkpt>
      <trkpt lat="51.6578338659511" lon="7.36377500087767">
        <ele>55.001</ele>
        <time>2013-05-28T18:05:33.449Z</time>
      </trkpt>
      <trkpt lat="51.6573340411508" lon="7.36335930306066">
        <ele>59.001</ele>
        <time>2013-05-28T18:05:35.555Z</time>
      </trkpt>
      <trkpt lat="51.6573224611713" lon="7.36252872783658">
        <ele>53.001</ele>
        <time>2013-05-28T18:05:36.413Z</time>
      </trkpt>
      <trkpt lat="51.6575356345418" lon="7.36172617687791">
        <ele>54.001</ele>
        <time>2013-05-28T18:05:37.427Z</time>
      </trkpt>
      <trkpt lat="51.6579608748804" lon="7.36160244757869">
        <ele>54.001</ele>
        <time>2013-05-28T18:05:39.299Z</time>
      </trkpt>
      <trkpt lat="51.658080233446" lon="7.36210411337695">
        <ele>54.001</ele>
        <time>2013-05-28T18:05:40.157Z</time>
      </trkpt>
      <trkpt lat="51.6581580369453" lon="7.36282378214807">
        <ele>54.001</ele>
        <time>2013-05-28T18:05:41.717Z</time>
      </trkpt>
      <trkpt lat="51.65888448353" lon="7.36337584037293">
        <ele>53.001</ele>
        <time>2013-05-28T18:05:45.149Z</time>
      </trkpt>
      <trkpt lat="51.6604057980163" lon="7.36447712161947">
        <ele>53.001</ele>
        <time>2013-05-28T18:05:47.021Z</time>
      </trkpt>
      <trkpt lat="51.66103384221" lon="7.36441837204848">
        <ele>53.001</ele>
        <time>2013-05-28T18:05:48.815Z</time>
      </trkpt>
      <trkpt lat="51.6615040065678" lon="7.36429303974657">
        <ele>53.001</ele>
        <time>2013-05-28T18:05:50.453Z</time>
      </trkpt>
      <trkpt lat="51.6620155698068" lon="7.36391327671731">
        <ele>53.001</ele>
        <time>2013-05-28T18:05:51.701Z</time>
      </trkpt>
      <trkpt lat="51.6628777928285" lon="7.3628705888728">
        <ele>53.001</ele>
        <time>2013-05-28T18:05:52.793Z</time>
      </trkpt>
      <trkpt lat="51.6640894454048" lon="7.36112839901655">
        <ele>54.001</ele>
        <time>2013-05-28T18:05:54.119Z</time>
      </trkpt>
      <trkpt lat="51.6654822714822" lon="7.35948812044315">
        <ele>53.001</ele>
        <time>2013-05-28T18:05:55.835Z</time>
      </trkpt>
      <trkpt lat="51.6663201269609" lon="7.35833773592748">
        <ele>54.001</ele>
        <time>2013-05-28T18:05:57.317Z</time>
      </trkpt>
      <trkpt lat="51.6666953910038" lon="7.35785438010647">
        <ele>54.001</ele>
        <time>2013-05-28T18:05:58.409Z</time>
      </trkpt>
      <trkpt lat="51.6668721968112" lon="7.3576671561783">
        <ele>53.001</ele>
        <time>2013-05-28T18:05:59.423Z</time>
      </trkpt>
      <trkpt lat="51.6673383107442" lon="7.35725277804508">
        <ele>53.001</ele>
        <time>2013-05-28T18:06:00.749Z</time>
      </trkpt>
      <trkpt lat="51.6675832010163" lon="7.35706322671809">
        <ele>55.001</ele>
        <time>2013-05-28T18:06:01.841Z</time>
      </trkpt>
      <trkpt lat="51.668619128215" lon="7.35561631666992">
        <ele>55.001</ele>
        <time>2013-05-28T18:06:03.635Z</time>
      </trkpt>
      <trkpt lat="51.6689320599664" lon="7.35549670637795">
        <ele>55.001</ele>
        <time>2013-05-28T18:06:04.883Z</time>
      </trkpt>
      <trkpt lat="51.6704127731232" lon="7.35374432607827">
        <ele>48.001</ele>
        <time>2013-05-28T18:06:06.365Z</time>
      </trkpt>
      <trkpt lat="51.6703060582634" lon="7.3525194191184">
        <ele>49.001</ele>
        <time>2013-05-28T18:06:09.797Z</time>
      </trkpt>
      <trkpt lat="51.6710879512893" lon="7.35151438910768">
        <ele>48.001</ele>
        <time>2013-05-28T18:06:22.823Z</time>
      </trkpt>
      <trkpt lat="51.671264746484" lon="7.35132712221636">
        <ele>48.001</ele>
        <time>2013-05-28T18:06:24.227Z</time>
      </trkpt>
      <trkpt lat="51.672383206465" lon="7.35096136673329">
        <ele>48.001</ele>
        <time>2013-05-28T18:06:25.943Z</time>
      </trkpt>
      <trkpt lat="51.6735227244039" lon="7.34889596252671">
        <ele>48.001</ele>
        <time>2013-05-28T18:06:27.815Z</time>
      </trkpt>
      <trkpt lat="51.6750144483399" lon="7.34631146590686">
        <ele>48.001</ele>
        <time>2013-05-28T18:06:29.375Z</time>
      </trkpt>
      <trkpt lat="51.6763070312022" lon="7.34395121798694">
        <ele>48.001</ele>
        <time>2013-05-28T18:06:31.091Z</time>
      </trkpt>
      <trkpt lat="51.677643463432" lon="7.34151679801367">
        <ele>48.001</ele>
        <time>2013-05-28T18:06:45.131Z</time>
      </trkpt>
      <trkpt lat="51.6781059445733" lon="7.34084925784214">
        <ele>48.001</ele>
        <time>2013-05-28T18:06:46.925Z</time>
      </trkpt>
      <trkpt lat="51.6785687670842" lon="7.3417720232768">
        <ele>49.001</ele>
        <time>2013-05-28T18:06:59.328Z</time>
      </trkpt>
      <trkpt lat="51.678452543315" lon="7.34152324029548">
        <ele>49.001</ele>
        <time>2013-05-28T18:07:01.512Z</time>
      </trkpt>
      <trkpt lat="51.6792410499123" lon="7.34004866293162">
        <ele>48.001</ele>
        <time>2013-05-28T18:07:04.086Z</time>
      </trkpt>
      <trkpt lat="51.6804691878815" lon="7.33790712327466">
        <ele>48.001</ele>
        <time>2013-05-28T18:07:06.504Z</time>
      </trkpt>
      <trkpt lat="51.6814330409552" lon="7.33617266026657">
        <ele>48.001</ele>
        <time>2013-05-28T18:07:07.83Z</time>
      </trkpt>
      <trkpt lat="51.6824447569395" lon="7.33432396147766">
        <ele>48.001</ele>
        <time>2013-05-28T18:07:18.75Z</time>
      </trkpt>
      <trkpt lat="51.6834980741132" lon="7.33251389694954">
        <ele>48.001</ele>
        <time>2013-05-28T18:07:20.388Z</time>
      </trkpt>
      <trkpt lat="51.6838691215665" lon="7.33174108375443">
        <ele>48.001</ele>
        <time>2013-05-28T18:07:22.572Z</time>
      </trkpt>
      <trkpt lat="51.68406407654" lon="7.331227795192">
        <ele>48.001</ele>
        <time>2013-05-28T18:07:23.742Z</time>
      </trkpt>
      <trkpt lat="51.6847665297869" lon="7.33008124752608">
        <ele>47.001</ele>
        <time>2013-05-28T18:07:26.082Z</time>
      </trkpt>
      <trkpt lat="51.6854484045732" lon="7.32904387971853">
        <ele>46.001</ele>
        <time>2013-05-28T18:07:27.486Z</time>
      </trkpt>
      <trkpt lat="51.6859963743602" lon="7.32804756754688">
        <ele>47.001</ele>
        <time>2013-05-28T18:07:29.28Z</time>
      </trkpt>
      <trkpt lat="51.6865900979114" lon="7.32715800480653">
        <ele>48.001</ele>
        <time>2013-05-28T18:07:31.074Z</time>
      </trkpt>
      <trkpt lat="51.687665925368" lon="7.32538292828594">
        <ele>48.001</ele>
        <time>2013-05-28T18:07:33.258Z</time>
      </trkpt>
      <trkpt lat="51.6885406158995" lon="7.32368750850082">
        <ele>47.001</ele>
        <time>2013-05-28T18:07:35.988Z</time>
      </trkpt>
      <trkpt lat="51.689173899125" lon="7.32239866306286">
        <ele>48.001</ele>
        <time>2013-05-28T18:07:39.264Z</time>
      </trkpt>
      <trkpt lat="51.6896559799844" lon="7.32151309281013">
        <ele>47.001</ele>
        <time>2013-05-28T18:07:40.746Z</time>
      </trkpt>
      <trkpt lat="51.6900687727012" lon="7.32052159918124">
        <ele>47.001</ele>
        <time>2013-05-28T18:07:41.916Z</time>
      </trkpt>
      <trkpt lat="51.6904633989735" lon="7.31985617036028">
        <ele>44.001</ele>
        <time>2013-05-28T18:07:44.022Z</time>
      </trkpt>
      <trkpt lat="51.6906634712896" lon="7.31970413357874">
        <ele>44.001</ele>
        <time>2013-05-28T18:07:47.532Z</time>
      </trkpt>
      <trkpt lat="51.6906557129163" lon="7.31916192709656">
        <ele>41.001</ele>
        <time>2013-05-28T18:07:49.404Z</time>
      </trkpt>
      <trkpt lat="51.6918843285765" lon="7.31705555173762">
        <ele>43.001</ele>
        <time>2013-05-28T18:07:51.276Z</time>
      </trkpt>
      <trkpt lat="51.6927136245581" lon="7.31536149580637">
        <ele>42.001</ele>
        <time>2013-05-28T18:07:52.836Z</time>
      </trkpt>
      <trkpt lat="51.6929935111734" lon="7.31448329263109">
        <ele>43.001</ele>
        <time>2013-05-28T18:07:54.084Z</time>
      </trkpt>
      <trkpt lat="51.6931833683484" lon="7.31364458420226">
        <ele>42.001</ele>
        <time>2013-05-28T18:07:55.176Z</time>
      </trkpt>
      <trkpt lat="51.6936875872587" lon="7.31286254019516">
        <ele>44.001</ele>
        <time>2013-05-28T18:08:04.458Z</time>
      </trkpt>
      <trkpt lat="51.6945850715498" lon="7.31120195991528">
        <ele>42.001</ele>
        <time>2013-05-28T18:08:05.862Z</time>
      </trkpt>
      <trkpt lat="51.695482362402" lon="7.30950515963182">
        <ele>42.001</ele>
        <time>2013-05-28T18:08:10.542Z</time>
      </trkpt>
      <trkpt lat="51.696602481319" lon="7.3077275137933">
        <ele>42.001</ele>
        <time>2013-05-28T18:08:12.492Z</time>
      </trkpt>
      <trkpt lat="51.6972622130485" lon="7.30672652096601">
        <ele>41.001</ele>
        <time>2013-05-28T18:08:13.74Z</time>
      </trkpt>
      <trkpt lat="51.6974810813691" lon="7.30632070563993">
        <ele>41.001</ele>
        <time>2013-05-28T18:08:14.832Z</time>
      </trkpt>
      <trkpt lat="51.6979264573581" lon="7.30601463165919">
        <ele>45.001</ele>
        <time>2013-05-28T18:08:16.002Z</time>
      </trkpt>
      <trkpt lat="51.698288533172" lon="7.30777309447273">
        <ele>42.001</ele>
        <time>2013-05-28T18:08:19.668Z</time>
      </trkpt>
      <trkpt lat="51.6984774138533" lon="7.30838082035332">
        <ele>42.001</ele>
        <time>2013-05-28T18:08:20.682Z</time>
      </trkpt>
      <trkpt lat="51.698439782688" lon="7.30888864845801">
        <ele>42.001</ele>
        <time>2013-05-28T18:08:22.554Z</time>
      </trkpt>
      <trkpt lat="51.6986481634054" lon="7.30931469655231">
        <ele>42.001</ele>
        <time>2013-05-28T18:08:23.802Z</time>
      </trkpt>
      <trkpt lat="51.699098052508" lon="7.30937039436222">
        <ele>41.001</ele>
        <time>2013-05-28T18:08:27.156Z</time>
      </trkpt>
      <trkpt lat="51.6997032592014" lon="7.30923934182744">
        <ele>41.001</ele>
        <time>2013-05-28T18:08:28.95Z</time>
      </trkpt>
      <trkpt lat="51.7004418332251" lon="7.30903098378179">
        <ele>41.001</ele>
        <time>2013-05-28T18:08:30.9Z</time>
      </trkpt>
      <trkpt lat="51.7005180428246" lon="7.30971513119838">
        <ele>41.001</ele>
        <time>2013-05-28T18:08:37.452Z</time>
      </trkpt>
      <trkpt lat="51.7006583539587" lon="7.31007155027732">
        <ele>41.001</ele>
        <time>2013-05-28T18:08:38.7Z</time>
      </trkpt>
      <trkpt lat="51.7009572629973" lon="7.31056686455483">
        <ele>40.001</ele>
        <time>2013-05-28T18:08:40.962Z</time>
      </trkpt>
      <trkpt lat="51.7006480229397" lon="7.31094003282876">
        <ele>41.001</ele>
        <time>2013-05-28T18:08:42.367Z</time>
      </trkpt>
      <trkpt lat="51.7003631513835" lon="7.31142078242914">
        <ele>41.001</ele>
        <time>2013-05-28T18:08:45.331Z</time>
      </trkpt>
      <trkpt lat="51.7003030453241" lon="7.31192932426705">
        <ele>41.001</ele>
        <time>2013-05-28T18:08:46.657Z</time>
      </trkpt>
      <trkpt lat="51.7004278088666" lon="7.31279263228521">
        <ele>41.001</ele>
        <time>2013-05-28T18:08:48.295Z</time>
      </trkpt>
      <trkpt lat="51.7005287173531" lon="7.31358450250012">
        <ele>40.001</ele>
        <time>2013-05-28T18:08:50.089Z</time>
      </trkpt>
      <trkpt lat="51.6997048021108" lon="7.31567649158266">
        <ele>42.001</ele>
        <time>2013-05-28T18:08:52.429Z</time>
      </trkpt>
      <trkpt lat="51.6977197893762" lon="7.31983642557575">
        <ele>42.001</ele>
        <time>2013-05-28T18:08:55.393Z</time>
      </trkpt>
      <trkpt lat="51.6954474543826" lon="7.32436849637225">
        <ele>42.001</ele>
        <time>2013-05-28T18:08:57.655Z</time>
      </trkpt>
      <trkpt lat="51.695630743862" lon="7.32461485101994">
        <ele>42.001</ele>
        <time>2013-05-28T18:08:58.591Z</time>
      </trkpt>
      <trkpt lat="51.6957488768257" lon="7.32504427700205">
        <ele>42.001</ele>
        <time>2013-05-28T18:08:59.527Z</time>
      </trkpt>
      <trkpt lat="51.6956211685946" lon="7.32551922405442">
        <ele>42.001</ele>
        <time>2013-05-28T18:09:01.945Z</time>
      </trkpt>
      <trkpt lat="51.6956086583971" lon="7.32624275984608">
        <ele>42.001</ele>
        <time>2013-05-28T18:09:03.349Z</time>
      </trkpt>
      <trkpt lat="51.6957245873672" lon="7.32804652454166">
        <ele>42.001</ele>
        <time>2013-05-28T18:09:04.753Z</time>
      </trkpt>
      <trkpt lat="51.6958096186457" lon="7.32930916339303">
        <ele>42.001</ele>
        <time>2013-05-28T18:09:05.845Z</time>
      </trkpt>
      <trkpt lat="51.6956198104153" lon="7.33018387121293">
        <ele>42.001</ele>
        <time>2013-05-28T18:09:08.575Z</time>
      </trkpt>
      <trkpt lat="51.6953192374998" lon="7.33117126972264">
        <ele>42.001</ele>
        <time>2013-05-28T18:09:11.461Z</time>
      </trkpt>
      <trkpt lat="51.6949528172646" lon="7.33226969794378">
        <ele>42.001</ele>
        <time>2013-05-28T18:09:13.567Z</time>
      </trkpt>
      <trkpt lat="51.6947801572203" lon="7.33274612680123">
        <ele>42.001</ele>
        <time>2013-05-28T18:09:14.737Z</time>
      </trkpt>
      <trkpt lat="51.6943700723207" lon="7.33554549908961">
        <ele>43.001</ele>
        <time>2013-05-28T18:09:18.715Z</time>
      </trkpt>
      <trkpt lat="51.692869744168" lon="7.33574518171689">
        <ele>43.001</ele>
        <time>2013-05-28T18:09:28.621Z</time>
      </trkpt>
      <trkpt lat="51.6914542392152" lon="7.33576095163936">
        <ele>44.001</ele>
        <time>2013-05-28T18:09:31.975Z</time>
      </trkpt>
      <trkpt lat="51.6903327648479" lon="7.33591055995531">
        <ele>44.001</ele>
        <time>2013-05-28T18:09:34.081Z</time>
      </trkpt>
      <trkpt lat="51.68947825265" lon="7.33586959032144">
        <ele>43.001</ele>
        <time>2013-05-28T18:09:35.641Z</time>
      </trkpt>
      <trkpt lat="51.6881500255315" lon="7.33570123656046">
        <ele>43.001</ele>
        <time>2013-05-28T18:09:39.541Z</time>
      </trkpt>
      <trkpt lat="51.6867953545329" lon="7.33842643924054">
        <ele>45.001</ele>
        <time>2013-05-28T18:09:42.193Z</time>
      </trkpt>
      <trkpt lat="51.6864211951412" lon="7.33898229995068">
        <ele>44.001</ele>
        <time>2013-05-28T18:09:46.483Z</time>
      </trkpt>
      <trkpt lat="51.6859735249232" lon="7.33910728757261">
        <ele>45.001</ele>
        <time>2013-05-28T18:09:47.731Z</time>
      </trkpt>
      <trkpt lat="51.6853226861539" lon="7.33916712101457">
        <ele>46.001</ele>
        <time>2013-05-28T18:09:48.901Z</time>
      </trkpt>
      <trkpt lat="51.6847601594167" lon="7.33911554668916">
        <ele>45.001</ele>
        <time>2013-05-28T18:09:50.773Z</time>
      </trkpt>
      <trkpt lat="51.6841705688438" lon="7.33873931733787">
        <ele>43.001</ele>
        <time>2013-05-28T18:09:52.957Z</time>
      </trkpt>
      <trkpt lat="51.6832747153154" lon="7.33895300807514">
        <ele>45.001</ele>
        <time>2013-05-28T18:09:55.843Z</time>
      </trkpt>
      <trkpt lat="51.6822900399722" lon="7.33924209951476">
        <ele>47.001</ele>
        <time>2013-05-28T18:09:58.885Z</time>
      </trkpt>
      <trkpt lat="51.6815309882046" lon="7.33959522181979">
        <ele>46.001</ele>
        <time>2013-05-28T18:10:01.147Z</time>
      </trkpt>
      <trkpt lat="51.6810593221177" lon="7.3396124781116">
        <ele>45.001</ele>
        <time>2013-05-28T18:10:02.395Z</time>
      </trkpt>
      <trkpt lat="51.6805386465973" lon="7.33934219617354">
        <ele>46.001</ele>
        <time>2013-05-28T18:10:04.735Z</time>
      </trkpt>
      <trkpt lat="51.6800435003991" lon="7.33928815821767">
        <ele>48.001</ele>
        <time>2013-05-28T18:10:08.245Z</time>
      </trkpt>
      <trkpt lat="51.6793610214785" lon="7.34028911968148">
        <ele>48.001</ele>
        <time>2013-05-28T18:10:11.287Z</time>
      </trkpt>
      <trkpt lat="51.6790802678175" lon="7.34109463176603">
        <ele>48.001</ele>
        <time>2013-05-28T18:10:12.613Z</time>
      </trkpt>
      <trkpt lat="51.6786427963377" lon="7.34194200611189">
        <ele>49.001</ele>
        <time>2013-05-28T18:10:24.625Z</time>
      </trkpt>
      <trkpt lat="51.6784564817477" lon="7.34147890100206">
        <ele>49.001</ele>
        <time>2013-05-28T18:10:25.717Z</time>
      </trkpt>
      <trkpt lat="51.6781068067183" lon="7.3421783251855">
        <ele>49.001</ele>
        <time>2013-05-28T18:11:54.638Z</time>
      </trkpt>
      <trkpt lat="51.6777326318072" lon="7.34273432956396">
        <ele>49.001</ele>
        <time>2013-05-28T18:12:02.204Z</time>
      </trkpt>
      <trkpt lat="51.6775345650388" lon="7.3430305904286">
        <ele>48.001</ele>
        <time>2013-05-28T18:12:10.94Z</time>
      </trkpt>
    </trkseg>
  </trk>
</gpx>